createdAt,value
2023-04-27T00:00:28.576Z,87.50
2023-04-27T00:03:19.828Z,87.70
2023-04-27T00:06:11.232Z,88.00
2023-04-27T00:08:59.797Z,88.10
2023-04-27T00:11:47.524Z,88.30
2023-04-27T00:14:34.988Z,88.40
2023-04-27T00:17:27.049Z,88.60
2023-04-27T00:20:17.035Z,89.60
2023-04-27T00:23:07.390Z,89.10
2023-04-27T00:25:54.976Z,89.30
2023-04-27T00:28:42.486Z,89.30
2023-04-27T00:31:33.262Z,89.50
2023-04-27T00:34:22.732Z,89.70
2023-04-27T00:37:10.170Z,89.80
2023-04-27T00:40:03.252Z,89.90
2023-04-27T00:42:53.656Z,90.00
2023-04-27T00:45:44.369Z,90.00
2023-04-27T00:48:33.771Z,90.10
2023-04-27T00:51:22.700Z,90.10
2023-04-27T00:54:11.223Z,90.20
2023-04-27T00:57:00.896Z,90.20
2023-04-27T00:59:49.058Z,90.30
2023-04-27T01:02:37.452Z,90.40
2023-04-27T01:05:31.324Z,90.40
2023-04-27T01:08:24.843Z,90.50
2023-04-27T01:11:12.522Z,90.50
2023-04-27T01:14:04.525Z,90.50
2023-04-27T01:16:53.422Z,90.50
2023-04-27T01:19:40.981Z,90.70
2023-04-27T01:22:30.948Z,90.50
2023-04-27T01:25:21.258Z,90.60
2023-04-27T01:28:09.132Z,90.70
2023-04-27T01:30:57.937Z,90.70
2023-04-27T01:33:46.494Z,90.60
2023-04-27T01:36:37.422Z,90.70
2023-04-27T01:39:26.298Z,91.00
2023-04-27T01:42:17.335Z,90.80
2023-04-27T01:45:08.655Z,91.20
2023-04-27T01:47:58.336Z,90.80
2023-04-27T01:50:46.111Z,90.80
2023-04-27T01:53:33.746Z,90.80
2023-04-27T01:56:21.330Z,90.80
2023-04-27T01:59:10.312Z,90.90
2023-04-27T02:02:00.509Z,90.80
2023-04-27T02:04:52.171Z,90.80
2023-04-27T02:07:40.189Z,90.80
2023-04-27T02:10:29.464Z,90.80
2023-04-27T02:13:17.404Z,90.70
2023-04-27T02:16:06.898Z,90.80
2023-04-27T02:18:57.448Z,90.80
2023-04-27T02:21:51.346Z,90.80
2023-04-27T02:24:38.932Z,90.80
2023-04-27T02:27:26.596Z,90.90
2023-04-27T02:30:15.579Z,90.90
2023-04-27T02:33:06.623Z,91.00
2023-04-27T02:35:55.089Z,91.00
2023-04-27T02:38:42.696Z,91.00
2023-04-27T02:41:36.446Z,91.00
2023-04-27T02:44:23.860Z,91.20
2023-04-27T02:47:13.853Z,91.20
2023-04-27T02:50:07.960Z,91.30
2023-04-27T02:53:03.085Z,91.30
2023-04-27T02:55:50.950Z,91.40
2023-04-27T02:58:41.064Z,91.50
2023-04-27T03:01:30.640Z,91.60
2023-04-27T03:04:24.198Z,91.60
2023-04-27T03:07:16.146Z,91.70
2023-04-27T03:10:06.381Z,91.80
2023-04-27T03:12:57.825Z,91.90
2023-04-27T03:15:48.347Z,91.90
2023-04-27T03:18:36.134Z,92.00
2023-04-27T03:21:29.410Z,92.00
2023-04-27T03:24:18.646Z,92.10
2023-04-27T03:27:08.577Z,92.20
2023-04-27T03:29:56.352Z,92.30
2023-04-27T03:32:47.768Z,92.30
2023-04-27T03:35:35.463Z,92.40
2023-04-27T03:38:22.789Z,92.50
2023-04-27T03:41:11.837Z,92.50
2023-04-27T03:43:58.818Z,92.60
2023-04-27T03:46:46.162Z,92.70
2023-04-27T03:49:33.297Z,92.80
2023-04-27T03:52:20.246Z,92.80
2023-04-27T03:55:08.447Z,92.80
2023-04-27T03:57:57.185Z,93.30
2023-04-27T04:00:44.040Z,93.00
2023-04-27T04:03:32.081Z,93.00
2023-04-27T04:06:20.113Z,92.60
2023-04-27T04:09:10.705Z,93.20
2023-04-27T04:12:02.248Z,93.20
2023-04-27T04:14:51.660Z,93.20
2023-04-27T04:17:39.562Z,93.20
2023-04-27T04:20:27.908Z,93.30
2023-04-27T04:23:17.446Z,93.40
2023-04-27T04:26:05.230Z,93.40
2023-04-27T04:28:56.276Z,93.50
2023-04-27T04:31:48.129Z,93.50
2023-04-27T04:34:35.814Z,93.60
2023-04-27T04:37:24.755Z,93.60
2023-04-27T04:40:15.332Z,93.70
2023-04-27T04:43:04.195Z,93.60
2023-04-27T04:45:52.761Z,93.50
2023-04-27T04:48:44.022Z,93.40
2023-04-27T04:51:35.378Z,93.30
2023-04-27T04:54:23.238Z,93.30
2023-04-27T04:57:10.917Z,93.30
2023-04-27T05:00:00.111Z,93.10
2023-04-27T05:05:38.790Z,92.80
2023-04-27T05:08:28.135Z,93.10
2023-04-27T05:11:15.687Z,93.10
2023-04-27T05:14:06.704Z,92.80
2023-04-27T05:16:56.860Z,92.70
2023-04-27T05:19:44.889Z,92.70
2023-04-27T05:22:37.730Z,92.60
2023-04-27T05:25:31.434Z,92.40
2023-04-27T05:28:19.564Z,92.30
2023-04-27T05:31:15.737Z,92.10
2023-04-27T05:34:03.135Z,92.00
2023-04-27T05:36:50.026Z,92.00
2023-04-27T05:39:38.813Z,91.80
2023-04-27T05:42:26.011Z,91.60
2023-04-27T05:45:13.486Z,91.40
2023-04-27T05:48:00.748Z,91.30
2023-04-27T05:50:48.342Z,91.10
2023-04-27T05:53:36.180Z,90.90
2023-04-27T05:56:25.116Z,90.60
2023-04-27T05:59:14.823Z,90.60
2023-04-27T06:02:09.056Z,90.40
2023-04-27T06:04:56.268Z,90.40
2023-04-27T06:07:44.211Z,90.20
2023-04-27T06:10:31.372Z,90.00
2023-04-27T06:13:20.565Z,89.40
2023-04-27T06:16:08.311Z,89.00
2023-04-27T06:18:55.711Z,89.20
2023-04-27T06:21:44.596Z,88.80
2023-04-27T06:24:32.207Z,88.60
2023-04-27T06:27:19.686Z,87.70
2023-04-27T06:30:09.390Z,87.60
2023-04-27T06:32:56.763Z,87.20
2023-04-27T06:35:46.482Z,86.80
2023-04-27T06:38:34.476Z,86.90
2023-04-27T06:41:21.804Z,86.40
2023-04-27T06:44:09.136Z,85.60
2023-04-27T06:46:57.821Z,85.30
2023-04-27T06:49:44.821Z,85.10
2023-04-27T06:52:34.395Z,85.00
2023-04-27T06:55:22.044Z,84.30
2023-04-27T06:58:09.328Z,84.10
2023-04-27T07:00:56.529Z,84.00
2023-04-27T07:03:45.292Z,83.30
2023-04-27T07:06:33.594Z,82.90
2023-04-27T07:12:14.275Z,81.80
2023-04-27T07:15:02.961Z,81.60
2023-04-27T07:17:50.579Z,80.90
2023-04-27T07:20:42.563Z,80.50
2023-04-27T07:23:30.620Z,80.90
2023-04-27T07:26:18.637Z,80.40
2023-04-27T07:29:18.792Z,79.80
2023-04-27T07:32:11.583Z,78.80
2023-04-27T07:34:59.734Z,78.40
2023-04-27T07:37:48.600Z,77.50
2023-04-27T07:40:37.028Z,77.10
2023-04-27T07:43:25.838Z,76.20
2023-04-27T07:46:13.167Z,75.60
2023-04-27T07:49:01.145Z,75.10
2023-04-27T07:51:48.566Z,75.10
2023-04-27T07:54:37.175Z,74.40
2023-04-27T07:57:24.016Z,73.00
2023-04-27T08:00:13.366Z,73.30
2023-04-27T08:03:01.122Z,72.80
2023-04-27T08:05:48.831Z,73.60
2023-04-27T08:08:36.512Z,72.60
2023-04-27T08:11:25.527Z,71.50
2023-04-27T08:14:13.898Z,71.80
2023-04-27T08:17:01.591Z,72.00
2023-04-27T08:19:49.467Z,70.80
2023-04-27T08:22:37.506Z,70.20
2023-04-27T08:25:25.255Z,70.10
2023-04-27T08:28:14.602Z,67.70
2023-04-27T08:31:02.078Z,66.80
2023-04-27T08:33:49.478Z,67.20
2023-04-27T08:36:36.350Z,66.50
2023-04-27T08:39:24.299Z,66.10
2023-04-27T08:42:12.882Z,65.60
2023-04-27T08:45:01.200Z,65.00
2023-04-27T08:47:48.106Z,63.60
2023-04-27T08:50:37.616Z,62.70
2023-04-27T08:53:25.873Z,61.80
2023-04-27T08:56:13.889Z,60.60
2023-04-27T08:59:04.914Z,58.60
2023-04-27T09:01:53.970Z,57.70
2023-04-27T09:04:42.009Z,57.20
2023-04-27T09:07:29.488Z,55.20
2023-04-27T09:10:17.492Z,54.20
2023-04-27T09:13:05.010Z,53.70
2023-04-27T09:15:53.417Z,52.90
2023-04-27T09:18:44.604Z,51.80
2023-04-27T09:21:32.710Z,50.50
2023-04-27T09:27:09.935Z,47.40
2023-04-27T09:29:58.073Z,46.40
2023-04-27T09:32:54.051Z,43.10
2023-04-27T09:35:47.235Z,41.40
2023-04-27T09:49:55.803Z,40.10
2023-04-27T09:52:47.360Z,39.90
2023-04-27T09:55:39.754Z,39.80
2023-04-27T09:58:45.582Z,39.00
2023-04-27T10:01:42.354Z,38.80
2023-04-27T10:04:47.954Z,39.70
2023-04-27T10:07:36.827Z,40.00
2023-04-27T10:10:26.350Z,41.10
2023-04-27T10:13:27.837Z,41.30
2023-04-27T10:16:19.445Z,41.60
2023-04-27T10:19:12.237Z,42.90
2023-04-27T10:22:03.983Z,44.60
2023-04-27T10:24:53.532Z,44.70
2023-04-27T10:27:43.046Z,45.00
2023-04-27T10:30:39.091Z,47.00
2023-04-27T10:33:27.063Z,46.90
2023-04-27T10:36:20.455Z,46.00
2023-04-27T10:39:30.068Z,46.10
2023-04-27T10:42:29.970Z,46.40
2023-04-27T10:45:31.494Z,48.20
2023-04-27T10:48:23.815Z,49.40
2023-04-27T10:51:11.936Z,49.30
2023-04-27T10:54:05.624Z,48.90
2023-04-27T10:56:54.796Z,48.80
2023-04-27T10:59:55.710Z,48.80
2023-04-27T11:02:47.373Z,49.70
2023-04-27T11:05:36.407Z,50.00
2023-04-27T11:08:24.647Z,50.00
2023-04-27T11:11:17.152Z,49.90
2023-04-27T11:14:10.754Z,50.90
2023-04-27T11:16:59.947Z,50.40
2023-04-27T11:19:51.598Z,49.50
2023-04-27T11:22:55.886Z,49.80
2023-04-27T11:25:46.706Z,51.70
2023-04-27T11:28:37.618Z,50.90
2023-04-27T11:31:30.355Z,51.20
2023-04-27T11:34:23.104Z,52.60
2023-04-27T11:37:23.139Z,52.30
2023-04-27T11:40:21.527Z,51.80
2023-04-27T11:43:14.888Z,53.00
2023-04-27T11:46:10.872Z,52.90
2023-04-27T11:49:04.589Z,51.10
2023-04-27T11:51:52.323Z,50.70
2023-04-27T11:54:41.566Z,51.10
2023-04-27T11:57:31.218Z,50.60
2023-04-27T12:00:22.813Z,49.40
2023-04-27T12:03:11.093Z,48.70
2023-04-27T12:06:27.781Z,48.10
2023-04-27T12:09:17.820Z,48.70
2023-04-27T12:12:11.534Z,49.40
2023-04-27T12:14:59.365Z,48.90
2023-04-27T12:17:48.236Z,48.40
2023-04-27T12:20:40.713Z,49.00
2023-04-27T12:23:29.125Z,48.50
2023-04-27T12:26:16.907Z,49.00
2023-04-27T12:29:06.068Z,48.70
2023-04-27T12:31:54.236Z,48.30
2023-04-27T12:34:43.176Z,48.30
2023-04-27T12:37:31.362Z,48.90
2023-04-27T12:40:20.783Z,48.70
2023-04-27T12:43:10.127Z,48.20
2023-04-27T12:45:59.252Z,48.20
2023-04-27T12:48:47.869Z,48.00
2023-04-27T12:51:36.028Z,47.20
2023-04-27T12:54:23.556Z,48.10
2023-04-27T12:57:12.616Z,48.50
2023-04-27T13:00:05.842Z,48.20
2023-04-27T13:02:55.671Z,47.40
2023-04-27T13:05:44.631Z,47.10
2023-04-27T13:08:32.943Z,47.00
2023-04-27T13:11:21.232Z,47.70
2023-04-27T13:14:13.118Z,48.10
2023-04-27T13:17:02.380Z,47.60
2023-04-27T13:19:53.878Z,48.80
2023-04-27T13:22:42.611Z,48.80
2023-04-27T13:25:30.458Z,49.80
2023-04-27T13:28:18.317Z,51.10
2023-04-27T13:31:06.343Z,50.10
2023-04-27T13:33:54.955Z,49.70
2023-04-27T13:36:47.822Z,50.30
2023-04-27T13:39:39.815Z,50.40
2023-04-27T13:42:29.789Z,49.40
2023-04-27T13:45:18.985Z,49.30
2023-04-27T13:48:09.763Z,49.10
2023-04-27T13:50:58.385Z,48.40
2023-04-27T13:53:47.706Z,47.20
2023-04-27T13:56:35.794Z,47.20
2023-04-27T13:59:23.828Z,48.30
2023-04-27T14:02:31.001Z,46.70
2023-04-27T14:05:19.354Z,46.40
2023-04-27T14:08:11.570Z,46.90
2023-04-27T14:11:05.002Z,47.50
2023-04-27T14:13:57.793Z,48.50
2023-04-27T14:16:48.947Z,48.10
2023-04-27T14:19:42.840Z,48.60
2023-04-27T14:22:31.864Z,48.90
2023-04-27T14:25:27.920Z,49.00
2023-04-27T14:28:24.976Z,50.20
2023-04-27T14:31:13.077Z,51.40
2023-04-27T14:34:03.082Z,50.10
2023-04-27T14:36:53.226Z,49.90
2023-04-27T14:39:45.276Z,49.70
2023-04-27T14:42:34.084Z,50.10
2023-04-27T14:45:24.845Z,49.40
2023-04-27T14:48:19.186Z,48.80
2023-04-27T14:51:10.123Z,49.20
2023-04-27T14:53:58.539Z,50.30
2023-04-27T14:56:49.534Z,49.50
2023-04-27T14:59:43.192Z,49.80
2023-04-27T15:02:34.768Z,49.70
2023-04-27T15:05:25.219Z,50.80
2023-04-27T15:08:13.778Z,50.70
2023-04-27T15:11:05.870Z,50.80
2023-04-27T15:13:58.229Z,51.10
2023-04-27T15:16:46.324Z,50.50
2023-04-27T15:19:35.801Z,50.90
2023-04-27T15:22:23.986Z,50.70
2023-04-27T15:25:11.703Z,50.10
2023-04-27T15:28:01.529Z,51.20
2023-04-27T15:30:49.499Z,50.60
2023-04-27T15:33:36.544Z,50.30
2023-04-27T15:36:27.074Z,50.50
2023-04-27T15:39:14.391Z,50.60
2023-04-27T15:42:03.232Z,51.60
2023-04-27T15:44:51.098Z,51.00
2023-04-27T15:47:38.702Z,52.10
2023-04-27T15:50:26.136Z,54.20
2023-04-27T15:53:15.051Z,53.80
2023-04-27T15:56:04.997Z,54.00
2023-04-27T15:58:53.254Z,53.60
2023-04-27T16:01:42.573Z,53.50
2023-04-27T16:04:53.392Z,53.90
2023-04-27T16:08:03.224Z,53.90
2023-04-27T16:11:21.592Z,53.50
2023-04-27T16:14:23.257Z,54.60
2023-04-27T16:17:26.987Z,54.10
2023-04-27T16:20:36.535Z,54.60
2023-04-27T16:23:29.006Z,53.80
2023-04-27T16:26:19.426Z,53.60
2023-04-27T16:29:10.714Z,54.10
2023-04-27T16:31:58.604Z,53.70
2023-04-27T16:34:46.492Z,53.90
2023-04-27T16:37:37.327Z,53.60
2023-04-27T16:40:27.110Z,53.30
2023-04-27T16:43:17.295Z,53.90
2023-04-27T16:46:06.827Z,53.50
2023-04-27T16:48:54.579Z,53.70
2023-04-27T16:51:42.654Z,53.60
2023-04-27T16:54:30.876Z,53.40
2023-04-27T16:57:19.007Z,53.70
2023-04-27T17:00:10.319Z,53.60
2023-04-27T17:03:01.010Z,53.70
2023-04-27T17:05:53.561Z,53.80
2023-04-27T17:08:46.950Z,54.30
2023-04-27T17:11:35.207Z,54.80
2023-04-27T17:14:24.825Z,56.00
2023-04-27T17:17:14.046Z,56.30
2023-04-27T17:20:02.281Z,56.60
2023-04-27T17:22:52.955Z,57.20
2023-04-27T17:25:41.881Z,57.00
2023-04-27T17:28:35.686Z,57.00
2023-04-27T17:31:24.041Z,58.00
2023-04-27T17:34:16.257Z,57.60
2023-04-27T17:37:07.839Z,57.60
2023-04-27T17:39:58.019Z,57.80
2023-04-27T17:42:53.969Z,57.70
2023-04-27T17:45:41.993Z,57.90
2023-04-27T17:48:32.537Z,58.10
2023-04-27T17:51:25.877Z,58.40
2023-04-27T17:54:14.313Z,58.60
2023-04-27T17:57:05.482Z,58.90
2023-04-27T17:59:53.370Z,59.00
2023-04-27T18:02:41.627Z,59.40
2023-04-27T18:05:34.041Z,59.70
2023-04-27T18:08:23.533Z,60.50
2023-04-27T18:11:12.896Z,60.60
2023-04-27T18:14:04.009Z,60.50
2023-04-27T18:16:53.837Z,60.90
2023-04-27T18:19:44.588Z,61.10
2023-04-27T18:22:39.454Z,61.20
2023-04-27T18:25:36.123Z,63.20
2023-04-27T18:28:29.291Z,64.30
2023-04-27T18:31:17.278Z,63.70
2023-04-27T18:34:06.594Z,64.60
2023-04-27T18:36:54.212Z,65.70
2023-04-27T18:39:45.373Z,66.30
2023-04-27T18:42:37.176Z,67.10
2023-04-27T18:45:27.155Z,67.60
2023-04-27T18:48:19.894Z,68.10
2023-04-27T18:51:10.794Z,68.50
2023-04-27T18:54:00.833Z,68.90
2023-04-27T18:56:56.021Z,69.50
2023-04-27T18:59:45.227Z,69.80
2023-04-27T19:02:35.971Z,70.70
2023-04-27T19:05:25.094Z,70.80
2023-04-27T19:08:17.166Z,71.50
2023-04-27T19:11:04.883Z,71.90
2023-04-27T19:13:58.292Z,72.20
2023-04-27T19:16:50.973Z,72.60
2023-04-27T19:19:42.697Z,71.80
2023-04-27T19:22:34.556Z,73.40
2023-04-27T19:25:23.524Z,73.90
2023-04-27T19:28:12.128Z,74.40
2023-04-27T19:31:00.479Z,75.00
2023-04-27T19:33:55.455Z,75.40
2023-04-27T19:36:46.907Z,76.00
2023-04-27T19:39:34.893Z,76.30
2023-04-27T19:42:22.948Z,76.70
2023-04-27T19:45:12.543Z,77.10
2023-04-27T19:48:00.354Z,77.50
2023-04-27T19:50:49.524Z,78.10
2023-04-27T19:53:41.370Z,78.40
2023-04-27T20:19:07.351Z,80.60
2023-04-27T20:22:13.418Z,81.80
2023-04-27T20:25:05.430Z,83.10
2023-04-27T20:27:52.890Z,82.50
2023-04-27T20:30:40.461Z,82.70
2023-04-27T20:33:29.654Z,83.10
2023-04-27T20:36:19.098Z,83.30
2023-04-27T20:39:06.729Z,83.70
2023-04-27T20:41:56.820Z,84.10
2023-04-27T20:44:48.696Z,84.20
2023-04-27T20:47:38.496Z,84.50
2023-04-27T20:50:29.262Z,84.70
2023-04-27T20:53:17.254Z,85.00
2023-04-27T20:56:05.099Z,85.10
2023-04-27T20:58:54.503Z,85.30
2023-04-27T21:01:42.372Z,85.60
2023-04-27T21:04:30.060Z,85.80
2023-04-27T21:07:18.509Z,86.10
2023-04-27T21:10:07.259Z,86.40
2023-04-27T21:12:55.306Z,86.50
2023-04-27T21:15:44.247Z,86.70
2023-04-27T21:18:34.165Z,87.10
2023-04-27T21:21:24.800Z,87.20
2023-04-27T21:24:12.865Z,87.40
2023-04-27T21:27:00.473Z,87.60
2023-04-27T21:29:48.352Z,87.80
2023-04-27T21:32:37.301Z,88.10
2023-04-27T21:35:25.059Z,88.00
2023-04-27T21:38:12.541Z,88.30
2023-04-27T21:41:00.557Z,88.50
2023-04-27T21:43:48.361Z,88.70
2023-04-27T21:46:35.937Z,88.90
2023-04-27T21:49:24.621Z,89.10
2023-04-27T21:52:12.137Z,89.30
2023-04-27T21:55:01.147Z,89.40
2023-04-27T21:57:48.542Z,89.60
2023-04-27T22:00:36.458Z,89.80
2023-04-27T22:03:24.032Z,89.80
2023-04-27T22:06:16.287Z,89.80
2023-04-27T22:09:06.531Z,90.00
2023-04-27T22:11:55.722Z,90.10
2023-04-27T22:14:43.724Z,90.20
2023-04-27T22:17:31.595Z,90.20
2023-04-27T22:20:19.316Z,90.50
2023-04-27T22:23:09.416Z,94.70
2023-04-27T22:26:00.133Z,94.10
2023-04-27T22:28:48.038Z,90.60
2023-04-27T22:31:36.011Z,94.80
2023-04-27T22:34:23.802Z,94.80
2023-04-27T22:37:11.672Z,94.80
2023-04-27T22:40:01.634Z,94.80
2023-04-27T22:42:49.303Z,94.80
2023-04-27T22:45:38.860Z,95.10
2023-04-27T22:48:33.259Z,95.10
2023-04-27T22:51:24.820Z,95.20
2023-04-27T22:54:12.832Z,95.10
2023-04-27T22:57:02.763Z,95.10
2023-04-27T22:59:51.674Z,95.20
2023-04-27T23:02:42.033Z,95.20
2023-04-27T23:05:30.416Z,95.20
2023-04-27T23:08:19.098Z,95.30
2023-04-27T23:11:09.557Z,95.30
2023-04-27T23:13:58.786Z,95.40
2023-04-27T23:16:47.581Z,95.30
2023-04-27T23:19:35.767Z,95.40
2023-04-27T23:22:23.778Z,95.40
2023-04-27T23:25:11.685Z,95.40
2023-04-27T23:28:00.652Z,95.40
2023-04-27T23:30:56.256Z,95.60
2023-04-27T23:33:43.779Z,95.60
2023-04-27T23:36:31.290Z,95.70
2023-04-27T23:39:19.150Z,95.60
2023-04-27T23:42:07.772Z,95.70
2023-04-27T23:44:55.496Z,95.70
2023-04-27T23:47:44.757Z,95.70
2023-04-27T23:50:32.190Z,95.70
2023-04-27T23:53:22.032Z,95.70
2023-04-27T23:56:18.136Z,95.70
2023-04-27T23:59:05.725Z,95.80
